Terminal Aerodrome Forecast
Issued by NWS

Home | Current Version | Previous Version | Text Only | Print | Product List | Glossary On
Versions: 1 2 3 4 5 6 7 8 9 10 11 12 13 14 15 16 17 18 19 20
027
FTUS43 KGRR 300531
TAFMKG
TAF
KMKG 300531Z 3006/3106 07007KT P6SM -SHRA OVC045
     FM300800 07007KT P6SM VCSH OVC025
      TEMPO 3008/3012 4SM -SHRA BR
     FM301700 07009KT P6SM VCTS BKN035CB=

USA.gov is the U.S. government's official web portal to all federal, state and local government web resources and services.